createdAt,value
2018-03-26T00:02:02.035Z,39.10
2018-03-26T00:04:29.082Z,36.45
2018-03-26T00:06:56.105Z,44.08
2018-03-26T00:09:23.858Z,46.70
2018-03-26T00:11:50.869Z,42.08
2018-03-26T00:14:17.890Z,43.30
2018-03-26T00:16:44.867Z,49.00
2018-03-26T00:19:11.941Z,45.97
2018-03-26T00:21:38.962Z,43.20
2018-03-26T00:24:06.006Z,40.08
2018-03-26T00:26:33.021Z,44.78
2018-03-26T00:29:00.738Z,51.70
2018-03-26T00:31:27.745Z,42.80
2018-03-26T00:33:54.809Z,42.25
2018-03-26T00:36:21.781Z,40.03
2018-03-26T00:38:48.776Z,36.75
2018-03-26T00:41:15.810Z,35.70
2018-03-26T00:43:42.871Z,41.65
2018-03-26T00:46:09.909Z,40.20
2018-03-26T00:48:36.917Z,37.25
2018-03-26T00:51:03.933Z,41.95
2018-03-26T00:53:43.260Z,38.15
2018-03-26T00:56:10.321Z,38.42
2018-03-26T00:58:37.348Z,40.42
2018-03-26T01:01:04.421Z,40.20
2018-03-26T01:03:31.533Z,36.00
2018-03-26T01:05:58.534Z,35.55
2018-03-26T01:08:25.605Z,36.88
2018-03-26T01:10:52.602Z,39.22
2018-03-26T01:13:19.629Z,39.67
2018-03-26T01:15:46.706Z,39.67
2018-03-26T01:18:14.476Z,36.90
2018-03-26T01:20:41.471Z,34.05
2018-03-26T01:23:09.265Z,37.95
2018-03-26T01:25:36.285Z,41.33
2018-03-26T01:28:03.353Z,39.28
2018-03-26T01:30:30.377Z,39.78
2018-03-26T01:32:58.173Z,36.13
2018-03-26T01:35:25.180Z,39.30
2018-03-26T01:37:52.907Z,37.80
2018-03-26T01:40:19.931Z,38.42
2018-03-26T01:42:46.995Z,35.72
2018-03-26T01:45:14.022Z,39.38
2018-03-26T01:47:41.052Z,41.22
2018-03-26T01:50:08.140Z,42.30
2018-03-26T01:52:35.189Z,38.92
2018-03-26T01:55:02.248Z,39.80
2018-03-26T01:57:29.273Z,39.35
2018-03-26T01:59:56.260Z,42.72
2018-03-26T02:02:24.033Z,43.42
2018-03-26T02:04:52.082Z,40.08
2018-03-26T02:07:19.872Z,41.10
2018-03-26T02:09:47.647Z,36.63
2018-03-26T02:12:14.628Z,38.17
2018-03-26T02:14:41.707Z,43.67
2018-03-26T02:17:08.757Z,36.20
2018-03-26T02:19:35.785Z,36.47
2018-03-26T02:22:02.841Z,39.55
2018-03-26T02:24:29.969Z,35.17
2018-03-26T02:26:56.985Z,41.20
2018-03-26T02:29:23.996Z,40.72
2018-03-26T02:31:51.002Z,36.88
2018-03-26T02:34:18.043Z,39.58
2018-03-26T02:36:45.069Z,36.00
2018-03-26T02:39:12.063Z,38.38
2018-03-26T02:41:39.054Z,36.63
2018-03-26T02:44:06.150Z,40.15
2018-03-26T02:46:33.165Z,44.17
2018-03-26T02:49:00.169Z,41.05
2018-03-26T02:51:27.223Z,35.47
2018-03-26T02:53:54.310Z,44.53
2018-03-26T02:56:21.363Z,34.72
2018-03-26T02:58:48.370Z,39.90
2018-03-26T03:01:15.352Z,37.13
2018-03-26T03:03:42.404Z,42.60
2018-03-26T03:06:09.430Z,40.55
2018-03-26T03:08:36.458Z,36.65
2018-03-26T03:11:03.502Z,36.17
2018-03-26T03:13:31.310Z,42.92
2018-03-26T03:15:58.290Z,45.97
2018-03-26T03:18:25.350Z,43.08
2018-03-26T03:20:52.349Z,40.45
2018-03-26T03:23:19.415Z,43.50
2018-03-26T03:25:47.220Z,39.58
2018-03-26T03:28:14.957Z,44.28
2018-03-26T03:30:41.973Z,39.83
2018-03-26T03:33:10.092Z,42.25
2018-03-26T03:35:37.829Z,44.13
2018-03-26T03:38:04.825Z,45.10
2018-03-26T03:40:31.842Z,37.67
2018-03-26T03:42:58.949Z,46.37
2018-03-26T03:45:25.942Z,41.10
2018-03-26T03:47:52.952Z,45.03
2018-03-26T03:50:19.973Z,46.08
2018-03-26T03:52:47.033Z,47.03
2018-03-26T03:55:14.070Z,43.58
2018-03-26T03:57:41.064Z,40.03
2018-03-26T04:00:08.139Z,44.63
2018-03-26T04:02:35.161Z,42.38
2018-03-26T04:05:02.186Z,43.95
2018-03-26T04:07:29.201Z,41.72
2018-03-26T04:09:56.198Z,40.85
2018-03-26T04:12:23.177Z,52.03
2018-03-26T04:14:50.253Z,42.00
2018-03-26T04:17:17.248Z,47.28
2018-03-26T04:19:44.246Z,50.30
2018-03-26T04:22:11.281Z,37.25
2018-03-26T04:24:38.335Z,41.88
2018-03-26T04:27:05.316Z,45.42
2018-03-26T04:29:32.337Z,42.40
2018-03-26T04:31:59.341Z,45.50
2018-03-26T04:34:27.090Z,49.40
2018-03-26T04:36:54.351Z,47.90
2018-03-26T04:39:22.349Z,48.45
2018-03-26T04:41:49.510Z,49.63
2018-03-26T04:44:16.595Z,45.35
2018-03-26T04:46:44.308Z,48.40
2018-03-26T04:49:11.461Z,44.13
2018-03-26T04:51:38.557Z,47.83
2018-03-26T04:54:05.593Z,48.33
2018-03-26T04:56:32.735Z,49.35
2018-03-26T04:59:00.017Z,50.25
2018-03-26T05:01:26.982Z,48.35
2018-03-26T05:03:54.128Z,51.55
2018-03-26T05:06:21.908Z,46.88
2018-03-26T05:08:49.089Z,50.88
2018-03-26T05:11:16.196Z,51.90
2018-03-26T05:13:43.260Z,54.40
2018-03-26T05:16:10.285Z,54.90
2018-03-26T05:18:37.539Z,58.28
2018-03-26T05:21:05.498Z,51.08
2018-03-26T05:23:32.613Z,49.03
2018-03-26T05:26:00.592Z,50.97
2018-03-26T05:28:28.569Z,45.12
2018-03-26T05:30:55.872Z,49.03
2018-03-26T05:33:23.860Z,54.83
2018-03-26T05:35:50.982Z,55.85
2018-03-26T05:38:18.130Z,47.42
2018-03-26T05:40:45.262Z,52.83
2018-03-26T05:43:13.031Z,57.17
2018-03-26T05:45:40.266Z,53.20
2018-03-26T05:48:07.570Z,52.17
2018-03-26T05:50:34.692Z,56.55
2018-03-26T05:53:01.886Z,45.60
2018-03-26T05:55:29.787Z,53.38
2018-03-26T05:57:57.583Z,48.05
2018-03-26T06:00:24.834Z,58.08
2018-03-26T06:02:51.978Z,49.33
2018-03-26T06:05:19.133Z,53.87
2018-03-26T06:07:46.950Z,45.05
2018-03-26T06:10:14.023Z,50.03
2018-03-26T06:12:41.257Z,50.92
2018-03-26T06:15:09.139Z,49.25
2018-03-26T06:17:36.214Z,48.38
2018-03-26T06:20:03.473Z,48.90
2018-03-26T06:22:30.626Z,52.90
2018-03-26T06:24:57.799Z,41.90
2018-03-26T06:27:25.840Z,57.53
2018-03-26T06:29:53.632Z,49.30
2018-03-26T06:32:20.758Z,59.42
2018-03-26T06:34:47.893Z,52.22
2018-03-26T06:40:19.461Z,55.75
2018-03-26T06:42:46.703Z,58.60
2018-03-26T06:45:14.579Z,50.42
2018-03-26T06:47:42.494Z,57.80
2018-03-26T06:50:09.724Z,56.95
2018-03-26T06:52:37.000Z,57.97
2018-03-26T06:55:04.215Z,49.92
2018-03-26T06:57:31.355Z,55.90
2018-03-26T06:59:58.419Z,51.85
2018-03-26T07:02:25.861Z,49.75
2018-03-26T07:04:52.981Z,56.22
2018-03-26T07:07:20.797Z,52.80
2018-03-26T07:09:47.815Z,56.35
2018-03-26T07:12:15.638Z,55.30
2018-03-26T07:14:43.746Z,56.42
2018-03-26T07:17:11.003Z,57.72
2018-03-26T07:19:38.127Z,58.35
2018-03-26T07:22:05.262Z,56.58
2018-03-26T07:24:32.249Z,54.85
2018-03-26T07:26:59.279Z,49.42
2018-03-26T07:29:26.330Z,52.33
2018-03-26T07:31:53.398Z,53.53
2018-03-26T07:34:20.618Z,46.03
2018-03-26T07:36:48.629Z,50.88
2018-03-26T07:39:18.747Z,58.03
2018-03-26T07:41:45.829Z,51.28
2018-03-26T07:44:12.907Z,52.17
2018-03-26T07:46:40.158Z,51.95
2018-03-26T07:49:08.436Z,45.90
2018-03-26T07:51:35.603Z,54.40
2018-03-26T07:54:02.917Z,47.05
2018-03-26T07:56:30.887Z,49.55
2018-03-26T07:58:58.090Z,54.20
2018-03-26T08:01:26.812Z,53.83
2018-03-26T08:03:54.031Z,55.63
2018-03-26T08:06:21.209Z,51.50
2018-03-26T08:08:48.428Z,51.75
2018-03-26T08:11:16.407Z,51.35
2018-03-26T08:13:44.380Z,50.03
2018-03-26T08:16:11.672Z,53.22
2018-03-26T08:18:38.849Z,56.50
2018-03-26T08:21:05.986Z,53.17
2018-03-26T08:23:32.968Z,45.30
2018-03-26T08:25:59.988Z,50.78
2018-03-26T08:28:27.006Z,50.30
2018-03-26T08:30:54.026Z,48.15
2018-03-26T08:33:21.104Z,48.72
2018-03-26T08:35:48.085Z,48.97
2018-03-26T08:38:15.838Z,49.00
2018-03-26T08:40:42.861Z,51.40
2018-03-26T08:43:09.858Z,50.67
2018-03-26T08:45:36.895Z,45.97
2018-03-26T08:48:03.934Z,51.70
2018-03-26T08:50:30.962Z,49.77
2018-03-26T08:52:57.990Z,41.20
2018-03-26T08:55:25.040Z,43.60
2018-03-26T08:57:52.336Z,46.90
2018-03-26T09:00:19.663Z,48.77
2018-03-26T09:02:46.814Z,42.13
2018-03-26T09:05:14.022Z,47.90
2018-03-26T09:07:41.193Z,46.20
2018-03-26T09:10:08.258Z,45.83
2018-03-26T09:12:35.498Z,49.30
2018-03-26T09:15:02.629Z,43.80
2018-03-26T09:17:30.538Z,48.57
2018-03-26T09:19:57.782Z,43.43
2018-03-26T09:22:25.007Z,47.00
2018-03-26T09:24:52.055Z,46.73
2018-03-26T09:27:19.269Z,45.07
2018-03-26T09:29:46.319Z,48.40
2018-03-26T09:32:13.372Z,50.10
2018-03-26T09:34:41.309Z,46.80
2018-03-26T09:37:08.338Z,48.50
2018-03-26T09:39:35.381Z,49.23
2018-03-26T09:42:02.446Z,42.10
2018-03-26T09:44:29.449Z,40.77
2018-03-26T09:46:56.453Z,45.90
2018-03-26T09:49:23.542Z,45.47
2018-03-26T09:51:50.548Z,45.50
2018-03-26T09:54:18.363Z,44.13
2018-03-26T09:56:45.382Z,46.10
2018-03-26T09:59:13.237Z,50.77
2018-03-26T10:01:47.334Z,49.00
2018-03-26T10:04:15.123Z,48.57
2018-03-26T10:06:43.164Z,41.77
2018-03-26T10:09:11.048Z,40.90
2018-03-26T10:11:38.306Z,47.10
2018-03-26T10:14:06.242Z,44.63
2018-03-26T10:16:33.249Z,40.83
2018-03-26T10:19:00.265Z,44.47
2018-03-26T10:21:27.294Z,42.73
2018-03-26T10:23:54.570Z,45.17
2018-03-26T10:26:21.616Z,44.27
2018-03-26T10:28:48.859Z,43.07
2018-03-26T10:31:16.158Z,43.47
2018-03-26T10:33:43.286Z,42.40
2018-03-26T10:36:10.321Z,42.23
2018-03-26T10:38:37.638Z,42.00
2018-03-26T10:41:04.827Z,44.40
2018-03-26T10:43:32.106Z,46.33
2018-03-26T10:45:59.263Z,42.10
2018-03-26T10:48:26.460Z,42.10
2018-03-26T10:50:54.310Z,43.30
2018-03-26T10:53:21.521Z,44.10
2018-03-26T10:55:48.725Z,40.23
2018-03-26T10:58:15.745Z,42.97
2018-03-26T11:00:42.733Z,42.37
2018-03-26T11:03:09.761Z,48.43
2018-03-26T11:05:36.767Z,52.03
2018-03-26T11:08:03.848Z,45.00
2018-03-26T11:10:30.878Z,40.33
2018-03-26T11:12:57.894Z,49.40
2018-03-26T11:15:25.054Z,35.80
2018-03-26T11:17:52.114Z,43.60
2018-03-26T11:20:19.098Z,43.50
2018-03-26T11:22:46.147Z,41.30
2018-03-26T11:25:13.930Z,42.87
2018-03-26T11:27:41.106Z,46.10
2018-03-26T11:30:08.132Z,45.43
2018-03-26T11:32:35.857Z,45.90
2018-03-26T11:35:02.913Z,44.50
2018-03-26T11:37:29.933Z,41.10
2018-03-26T11:39:56.929Z,50.97
2018-03-26T11:42:24.698Z,47.63
2018-03-26T11:44:52.487Z,43.27
2018-03-26T11:47:19.525Z,43.67
2018-03-26T11:49:46.534Z,43.97
2018-03-26T11:52:13.633Z,43.77
2018-03-26T11:54:40.601Z,49.23
2018-03-26T11:57:07.621Z,41.70
2018-03-26T11:59:34.658Z,39.70
2018-03-26T12:02:01.673Z,41.93
2018-03-26T12:04:28.720Z,44.50
2018-03-26T12:06:55.750Z,43.20
2018-03-26T12:09:22.760Z,42.60
2018-03-26T12:11:50.074Z,43.90
2018-03-26T12:14:17.427Z,40.60
2018-03-26T12:16:44.538Z,41.13
2018-03-26T12:19:11.565Z,43.23
2018-03-26T12:21:38.570Z,45.53
2018-03-26T12:24:24.122Z,45.80
2018-03-26T12:26:51.155Z,46.20
2018-03-26T12:29:36.752Z,44.17
2018-03-26T12:32:03.830Z,45.13
2018-03-26T12:34:49.278Z,49.57
2018-03-26T12:37:16.324Z,42.47
2018-03-26T12:39:43.357Z,44.57
2018-03-26T12:42:10.386Z,44.70
2018-03-26T12:44:56.159Z,41.37
2018-03-26T12:47:23.338Z,45.07
2018-03-26T12:49:51.170Z,44.07
2018-03-26T12:52:36.724Z,40.37
2018-03-26T12:55:04.613Z,45.83
2018-03-26T12:57:50.058Z,45.87
2018-03-26T13:00:17.110Z,46.87
2018-03-26T13:02:44.121Z,45.60
2018-03-26T13:05:11.185Z,47.70
2018-03-26T13:07:38.232Z,43.03
2018-03-26T13:10:05.998Z,45.47
2018-03-26T13:12:33.761Z,45.40
2018-03-26T13:15:00.789Z,45.07
2018-03-26T13:17:27.792Z,42.03
2018-03-26T13:19:54.814Z,42.97
2018-03-26T13:22:21.837Z,43.20
2018-03-26T13:24:48.893Z,43.73
2018-03-26T13:27:15.909Z,39.70
2018-03-26T13:29:42.942Z,47.13
2018-03-26T13:32:10.001Z,43.37
2018-03-26T13:34:37.056Z,45.27
2018-03-26T13:37:04.085Z,42.30
2018-03-26T13:39:31.837Z,47.80
2018-03-26T13:41:59.586Z,43.40
2018-03-26T13:44:26.582Z,46.77
2018-03-26T13:46:53.760Z,41.03
2018-03-26T13:49:20.765Z,44.33
2018-03-26T13:51:47.798Z,42.60
2018-03-26T13:54:15.617Z,43.43
2018-03-26T13:56:42.669Z,41.37
2018-03-26T13:59:09.709Z,41.43
2018-03-26T14:01:36.704Z,43.00
2018-03-26T14:04:04.477Z,45.23
2018-03-26T14:06:31.517Z,41.27
2018-03-26T14:09:16.857Z,42.10
2018-03-26T14:12:02.453Z,41.27
2018-03-26T14:17:49.489Z,38.93
2018-03-26T14:20:17.313Z,39.67
2018-03-26T14:22:44.326Z,41.00
2018-03-26T14:25:11.348Z,43.60
2018-03-26T14:27:38.393Z,42.10
2018-03-26T14:30:05.458Z,41.23
2018-03-26T14:32:33.236Z,38.33
2018-03-26T14:38:05.995Z,47.27
2018-03-26T14:40:33.779Z,43.10
2018-03-26T14:43:00.880Z,42.13
2018-03-26T14:45:27.915Z,42.17
2018-03-26T14:47:55.004Z,45.43
2018-03-26T14:50:22.046Z,43.40
2018-03-26T14:52:49.064Z,48.00
2018-03-26T14:55:16.317Z,43.30
2018-03-26T14:57:43.334Z,43.80
2018-03-26T15:00:11.114Z,41.27
2018-03-26T15:02:38.184Z,45.20
2018-03-26T15:05:05.225Z,44.42
2018-03-26T15:07:32.222Z,39.90
2018-03-26T15:10:00.018Z,39.50
2018-03-26T15:12:27.766Z,36.50
2018-03-26T15:14:55.562Z,34.50
2018-03-26T15:17:23.185Z,37.00
2018-03-26T15:19:50.939Z,41.53
2018-03-26T15:22:17.987Z,32.90
2018-03-26T15:24:45.798Z,33.97
2018-03-26T15:27:12.851Z,39.73
2018-03-26T15:29:40.606Z,35.63
2018-03-26T15:32:07.620Z,39.93
2018-03-26T15:34:35.402Z,32.67
2018-03-26T15:37:02.479Z,38.43
2018-03-26T15:39:29.533Z,41.07
2018-03-26T15:41:56.878Z,46.33
2018-03-26T15:44:24.717Z,37.90
2018-03-26T15:46:51.756Z,35.87
2018-03-26T15:49:19.532Z,34.10
2018-03-26T15:51:47.296Z,37.60
2018-03-26T15:54:14.333Z,38.30
2018-03-26T15:56:41.381Z,35.17
2018-03-26T15:59:09.118Z,38.73
2018-03-26T16:01:36.132Z,39.10
2018-03-26T16:04:03.241Z,40.93
2018-03-26T16:06:30.250Z,33.00
2018-03-26T16:08:57.270Z,37.40
2018-03-26T16:11:24.464Z,33.93
2018-03-26T16:13:52.349Z,39.27
2018-03-26T16:16:19.402Z,43.20
2018-03-26T16:18:46.482Z,37.13
2018-03-26T16:21:13.487Z,38.20
2018-03-26T16:23:40.558Z,40.40
2018-03-26T16:26:07.646Z,37.37
2018-03-26T16:28:35.019Z,34.00
2018-03-26T16:31:02.121Z,37.23
2018-03-26T16:33:30.111Z,38.53
2018-03-26T16:35:57.250Z,35.77
2018-03-26T16:38:24.298Z,39.47
2018-03-26T16:40:51.570Z,37.57
2018-03-26T16:43:18.850Z,36.30
2018-03-26T16:45:46.078Z,41.27
2018-03-26T16:48:13.202Z,35.10
2018-03-26T16:50:40.350Z,33.43
2018-03-26T16:53:07.598Z,35.17
2018-03-26T16:55:34.721Z,42.77
2018-03-26T16:58:02.034Z,35.70
2018-03-26T17:00:29.286Z,35.30
2018-03-26T17:02:59.250Z,40.33
2018-03-26T17:05:26.430Z,43.57
2018-03-26T17:07:53.463Z,37.70
2018-03-26T17:10:20.898Z,39.27
2018-03-26T17:12:49.059Z,35.40
2018-03-26T17:15:16.831Z,36.53
2018-03-26T17:17:44.743Z,38.10
2018-03-26T17:20:12.607Z,35.43
2018-03-26T17:22:39.646Z,42.67
2018-03-26T17:25:06.901Z,36.70
2018-03-26T17:27:34.127Z,42.40
2018-03-26T17:30:01.375Z,39.60
2018-03-26T17:32:28.471Z,36.13
2018-03-26T17:34:55.497Z,41.83
2018-03-26T17:37:22.521Z,39.47
2018-03-26T17:39:50.566Z,41.83
2018-03-26T17:42:17.786Z,36.70
2018-03-26T17:44:45.049Z,36.17
2018-03-26T17:47:12.070Z,38.03
2018-03-26T17:49:39.106Z,37.80
2018-03-26T17:52:06.163Z,41.60
2018-03-26T17:54:33.241Z,41.90
2018-03-26T17:57:00.305Z,45.03
2018-03-26T17:59:27.334Z,37.30
2018-03-26T18:01:55.650Z,40.63
2018-03-26T18:04:22.797Z,44.23
2018-03-26T18:06:50.562Z,38.17
2018-03-26T18:09:17.645Z,41.23
2018-03-26T18:11:44.665Z,38.80
2018-03-26T18:14:11.726Z,41.80
2018-03-26T18:16:38.785Z,38.10
2018-03-26T18:19:05.824Z,45.40
2018-03-26T18:21:32.978Z,40.30
2018-03-26T18:24:00.376Z,40.60
2018-03-26T18:26:27.517Z,41.80
2018-03-26T18:28:55.310Z,40.50
2018-03-26T18:31:23.133Z,43.23
2018-03-26T18:33:50.362Z,35.30
2018-03-26T18:36:18.416Z,41.50
2018-03-26T18:38:45.486Z,40.70
2018-03-26T18:41:12.919Z,35.07
2018-03-26T18:43:40.108Z,40.53
2018-03-26T18:46:15.006Z,38.50
2018-03-26T18:48:42.374Z,39.17
2018-03-26T18:51:09.634Z,39.70
2018-03-26T18:53:36.859Z,43.00
2018-03-26T18:56:03.998Z,43.17
2018-03-26T18:58:31.284Z,43.70
2018-03-26T19:00:59.224Z,35.40
2018-03-26T19:03:26.519Z,40.67
2018-03-26T19:05:55.374Z,42.97
2018-03-26T19:08:22.559Z,42.40
2018-03-26T19:10:49.683Z,42.10
2018-03-26T19:13:17.521Z,39.80
2018-03-26T19:15:44.725Z,42.70
2018-03-26T19:18:11.908Z,44.10
2018-03-26T19:20:39.368Z,44.97
2018-03-26T19:23:07.358Z,41.00
2018-03-26T19:25:34.647Z,52.93
2018-03-26T19:28:02.561Z,45.57
2018-03-26T19:30:29.817Z,38.23
2018-03-26T19:32:57.070Z,42.10
2018-03-26T19:35:24.277Z,41.80
2018-03-26T19:37:51.342Z,43.40
2018-03-26T19:40:18.463Z,40.33
2018-03-26T19:42:45.482Z,45.03
2018-03-26T19:45:13.289Z,39.47
2018-03-26T19:47:40.294Z,39.90
2018-03-26T19:50:07.320Z,39.87
2018-03-26T19:52:35.286Z,41.10
2018-03-26T19:55:02.734Z,40.30
2018-03-26T19:57:29.772Z,38.50
2018-03-26T19:59:56.782Z,42.90
2018-03-26T20:02:23.781Z,38.80
2018-03-26T20:04:51.487Z,39.27
2018-03-26T20:07:18.486Z,45.87
2018-03-26T20:09:46.267Z,41.90
2018-03-26T20:12:13.282Z,50.03
2018-03-26T20:14:40.412Z,41.53
2018-03-26T20:17:07.406Z,46.00
2018-03-26T20:19:34.489Z,42.73
2018-03-26T20:22:01.581Z,45.50
2018-03-26T20:24:28.601Z,45.13
2018-03-26T20:26:55.634Z,42.13
2018-03-26T20:29:22.717Z,47.13
2018-03-26T20:31:49.763Z,42.80
2018-03-26T20:34:16.853Z,42.07
2018-03-26T20:36:44.760Z,46.00
2018-03-26T20:39:11.802Z,39.87
2018-03-26T20:41:38.831Z,44.83
2018-03-26T20:44:05.953Z,42.85
2018-03-26T20:46:33.896Z,43.57
2018-03-26T20:49:00.902Z,47.60
2018-03-26T20:51:27.930Z,42.93
2018-03-26T20:53:55.038Z,57.50
2018-03-26T20:56:22.047Z,58.37
2018-03-26T20:58:49.108Z,59.27
2018-03-26T21:01:16.137Z,57.10
2018-03-26T21:03:43.211Z,57.07
2018-03-26T21:06:10.584Z,53.40
2018-03-26T21:08:37.905Z,60.73
2018-03-26T21:11:05.061Z,57.37
2018-03-26T21:13:32.446Z,51.70
2018-03-26T21:16:00.345Z,55.07
2018-03-26T21:18:28.535Z,54.87
2018-03-26T21:20:56.446Z,49.83
2018-03-26T21:23:24.030Z,46.53
2018-03-26T21:25:51.182Z,52.88
2018-03-26T21:28:18.952Z,50.40
2018-03-26T21:30:46.748Z,53.07
2018-03-26T21:33:13.829Z,51.67
2018-03-26T21:35:40.857Z,48.50
2018-03-26T21:38:08.633Z,51.43
2018-03-26T21:40:35.620Z,55.87
2018-03-26T21:43:02.775Z,51.97
2018-03-26T21:45:30.525Z,53.10
2018-03-26T21:47:57.555Z,46.67
2018-03-26T21:50:24.577Z,51.43
2018-03-26T21:52:51.646Z,48.20
2018-03-26T21:55:18.721Z,45.10
2018-03-26T21:57:46.513Z,47.72
2018-03-26T22:00:20.504Z,48.08
2018-03-26T22:02:47.626Z,51.17
2018-03-26T22:05:14.690Z,44.03
2018-03-26T22:07:41.701Z,48.53
2018-03-26T22:10:08.683Z,51.33
2018-03-26T22:12:35.734Z,46.20
2018-03-26T22:15:02.847Z,46.60
2018-03-26T22:17:29.902Z,54.03
2018-03-26T22:19:57.186Z,46.10
2018-03-26T22:22:24.934Z,46.70
2018-03-26T22:24:52.321Z,42.70
2018-03-26T22:27:20.354Z,47.42
2018-03-26T22:29:47.405Z,46.78
2018-03-26T22:32:14.390Z,45.13
2018-03-26T22:34:42.205Z,44.67
2018-03-26T22:37:09.292Z,51.80
2018-03-26T22:39:37.038Z,52.00
2018-03-26T22:42:04.066Z,47.30
2018-03-26T22:44:31.210Z,44.10
2018-03-26T22:46:58.204Z,58.83
2018-03-26T22:49:25.282Z,46.03
2018-03-26T22:51:52.276Z,46.50
2018-03-26T22:54:19.410Z,44.53
2018-03-26T22:56:46.469Z,46.35
2018-03-26T22:59:14.258Z,42.60
2018-03-26T23:01:42.009Z,46.92
2018-03-26T23:04:10.890Z,49.13
2018-03-26T23:06:38.670Z,49.03
2018-03-26T23:09:06.422Z,44.40
2018-03-26T23:11:33.437Z,46.50
2018-03-26T23:14:00.471Z,51.17
2018-03-26T23:16:27.488Z,48.90
2018-03-26T23:18:55.258Z,45.53
2018-03-26T23:21:22.277Z,47.08
2018-03-26T23:23:49.374Z,47.75
2018-03-26T23:26:16.445Z,43.00
2018-03-26T23:28:43.457Z,44.08
2018-03-26T23:31:10.452Z,50.55
2018-03-26T23:33:37.485Z,50.70
2018-03-26T23:36:04.519Z,43.50
2018-03-26T23:38:31.522Z,49.22
2018-03-26T23:40:59.308Z,51.05
2018-03-26T23:43:27.092Z,49.45
2018-03-26T23:45:54.132Z,47.75
2018-03-26T23:48:21.176Z,46.37
2018-03-26T23:50:48.175Z,49.63
2018-03-26T23:53:16.023Z,47.22
2018-03-26T23:55:43.074Z,48.35
2018-03-26T23:58:10.085Z,43.35
